sensor_id;sensor_type;location;lat;lon;timestamp;P1;P2;P0
68713;PMS7003;55690;51.566;19.198;2023-07-13T00:01:38;6;3;3
68713;PMS7003;55690;51.566;19.198;2023-07-13T00:05:44;6;4;4
68713;PMS7003;55690;51.566;19.198;2023-07-13T00:09:51;5;5;4
68713;PMS7003;55690;51.566;19.198;2023-07-13T00:13:57;10;6;5
68713;PMS7003;55690;51.566;19.198;2023-07-13T00:18:04;2;2;2
68713;PMS7003;55690;51.566;19.198;2023-07-13T00:22:09;3;3;3
68713;PMS7003;55690;51.566;19.198;2023-07-13T00:26:15;6;6;4
68713;PMS7003;55690;51.566;19.198;2023-07-13T00:30:21;6;3;2
68713;PMS7003;55690;51.566;19.198;2023-07-13T00:34:27;5;5;4
68713;PMS7003;55690;51.566;19.198;2023-07-13T00:38:34;5;4;4
68713;PMS7003;55690;51.566;19.198;2023-07-13T00:42:40;5;5;4
68713;PMS7003;55690;51.566;19.198;2023-07-13T00:46:46;4;4;3
68713;PMS7003;55690;51.566;19.198;2023-07-13T00:50:53;5;5;4
68713;PMS7003;55690;51.566;19.198;2023-07-13T00:54:59;7;2;2
68713;PMS7003;55690;51.566;19.198;2023-07-13T00:59:05;4;3;3
68713;PMS7003;55690;51.566;19.198;2023-07-13T01:03:10;4;4;3
68713;PMS7003;55690;51.566;19.198;2023-07-13T01:07:17;5;5;3
68713;PMS7003;55690;51.566;19.198;2023-07-13T01:11:23;3;3;3
68713;PMS7003;55690;51.566;19.198;2023-07-13T01:19:39;9;7;6
68713;PMS7003;55690;51.566;19.198;2023-07-13T01:23:43;4;4;2
68713;PMS7003;55690;51.566;19.198;2023-07-13T01:27:47;10;5;4
68713;PMS7003;55690;51.566;19.198;2023-07-13T01:31:54;7;7;5
68713;PMS7003;55690;51.566;19.198;2023-07-13T01:36:00;5;5;5
68713;PMS7003;55690;51.566;19.198;2023-07-13T01:40:06;5;4;4
68713;PMS7003;55690;51.566;19.198;2023-07-13T01:44:12;5;5;4
68713;PMS7003;55690;51.566;19.198;2023-07-13T01:48:18;7;7;5
68713;PMS7003;55690;51.566;19.198;2023-07-13T01:52:24;6;6;5
68713;PMS7003;55690;51.566;19.198;2023-07-13T01:56:31;6;6;4
68713;PMS7003;55690;51.566;19.198;2023-07-13T02:00:37;5;5;4
68713;PMS7003;55690;51.566;19.198;2023-07-13T02:04:43;11;7;6
68713;PMS7003;55690;51.566;19.198;2023-07-13T02:08:49;6;6;5
68713;PMS7003;55690;51.566;19.198;2023-07-13T02:12:55;6;6;5
68713;PMS7003;55690;51.566;19.198;2023-07-13T02:17:01;7;7;6
68713;PMS7003;55690;51.566;19.198;2023-07-13T02:21:08;7;7;6
68713;PMS7003;55690;51.566;19.198;2023-07-13T02:25:14;5;5;4
68713;PMS7003;55690;51.566;19.198;2023-07-13T02:29:20;7;5;4
68713;PMS7003;55690;51.566;19.198;2023-07-13T02:33:26;5;5;4
68713;PMS7003;55690;51.566;19.198;2023-07-13T02:37:32;6;6;6
68713;PMS7003;55690;51.566;19.198;2023-07-13T02:41:39;7;7;6
68713;PMS7003;55690;51.566;19.198;2023-07-13T02:45:45;6;6;6
68713;PMS7003;55690;51.566;19.198;2023-07-13T02:49:51;5;5;5
68713;PMS7003;55690;51.566;19.198;2023-07-13T02:53:57;9;9;6
68713;PMS7003;55690;51.566;19.198;2023-07-13T02:58:03;5;4;4
68713;PMS7003;55690;51.566;19.198;2023-07-13T03:02:09;8;7;6
68713;PMS7003;55690;51.566;19.198;2023-07-13T03:06:16;9;8;7
68713;PMS7003;55690;51.566;19.198;2023-07-13T03:10:22;6;6;5
68713;PMS7003;55690;51.566;19.198;2023-07-13T03:14:28;4;4;3
68713;PMS7003;55690;51.566;19.198;2023-07-13T03:18:34;6;4;4
68713;PMS7003;55690;51.566;19.198;2023-07-13T03:22:40;9;9;7
68713;PMS7003;55690;51.566;19.198;2023-07-13T03:26:46;4;4;3
68713;PMS7003;55690;51.566;19.198;2023-07-13T03:35:01;5;5;4
68713;PMS7003;55690;51.566;19.198;2023-07-13T03:39:05;7;6;5
68713;PMS7003;55690;51.566;19.198;2023-07-13T03:43:11;12;4;4
68713;PMS7003;55690;51.566;19.198;2023-07-13T03:47:17;5;5;4
68713;PMS7003;55690;51.566;19.198;2023-07-13T03:51:23;7;7;6
68713;PMS7003;55690;51.566;19.198;2023-07-13T03:55:30;4;4;4
68713;PMS7003;55690;51.566;19.198;2023-07-13T03:59:36;7;7;5
68713;PMS7003;55690;51.566;19.198;2023-07-13T04:03:42;5;5;4
68713;PMS7003;55690;51.566;19.198;2023-07-13T04:07:48;5;5;4
68713;PMS7003;55690;51.566;19.198;2023-07-13T04:11:54;8;8;7
68713;PMS7003;55690;51.566;19.198;2023-07-13T04:16:00;9;8;8
68713;PMS7003;55690;51.566;19.198;2023-07-13T04:20:07;7;7;6
68713;PMS7003;55690;51.566;19.198;2023-07-13T04:24:13;10;9;7
68713;PMS7003;55690;51.566;19.198;2023-07-13T04:28:20;9;8;7
68713;PMS7003;55690;51.566;19.198;2023-07-13T04:32:25;16;10;7
68713;PMS7003;55690;51.566;19.198;2023-07-13T04:36:31;12;12;10
68713;PMS7003;55690;51.566;19.198;2023-07-13T04:40:37;16;14;11
68713;PMS7003;55690;51.566;19.198;2023-07-13T04:48:51;11;10;8
68713;PMS7003;55690;51.566;19.198;2023-07-13T04:52:56;7;7;6
68713;PMS7003;55690;51.566;19.198;2023-07-13T04:57:03;8;7;6
68713;PMS7003;55690;51.566;19.198;2023-07-13T05:01:09;6;6;4
68713;PMS7003;55690;51.566;19.198;2023-07-13T05:05:14;16;11;9
68713;PMS7003;55690;51.566;19.198;2023-07-13T05:09:20;15;11;8
68713;PMS7003;55690;51.566;19.198;2023-07-13T05:13:26;12;8;8
68713;PMS7003;55690;51.566;19.198;2023-07-13T05:17:33;13;11;10
68713;PMS7003;55690;51.566;19.198;2023-07-13T05:21:39;8;8;7
68713;PMS7003;55690;51.566;19.198;2023-07-13T05:25:45;9;9;7
68713;PMS7003;55690;51.566;19.198;2023-07-13T05:29:51;13;11;8
68713;PMS7003;55690;51.566;19.198;2023-07-13T05:33:57;13;12;10
68713;PMS7003;55690;51.566;19.198;2023-07-13T05:38:03;26;17;13
68713;PMS7003;55690;51.566;19.198;2023-07-13T05:42:10;12;12;9
68713;PMS7003;55690;51.566;19.198;2023-07-13T05:46:16;11;11;8
68713;PMS7003;55690;51.566;19.198;2023-07-13T05:50:22;10;10;8
68713;PMS7003;55690;51.566;19.198;2023-07-13T05:54:28;9;9;7
68713;PMS7003;55690;51.566;19.198;2023-07-13T05:58:36;17;13;9
68713;PMS7003;55690;51.566;19.198;2023-07-13T06:02:40;9;9;7
68713;PMS7003;55690;51.566;19.198;2023-07-13T06:06:47;12;11;10
68713;PMS7003;55690;51.566;19.198;2023-07-13T06:10:53;11;10;8
68713;PMS7003;55690;51.566;19.198;2023-07-13T06:14:59;12;11;10
68713;PMS7003;55690;51.566;19.198;2023-07-13T06:19:05;12;11;8
68713;PMS7003;55690;51.566;19.198;2023-07-13T06:23:11;15;11;8
68713;PMS7003;55690;51.566;19.198;2023-07-13T06:27:17;12;10;9
68713;PMS7003;55690;51.566;19.198;2023-07-13T06:31:23;10;10;9
68713;PMS7003;55690;51.566;19.198;2023-07-13T06:35:30;13;13;10
68713;PMS7003;55690;51.566;19.198;2023-07-13T06:39:36;8;8;6
68713;PMS7003;55690;51.566;19.198;2023-07-13T06:43:42;11;11;8
68713;PMS7003;55690;51.566;19.198;2023-07-13T06:47:48;11;11;10
68713;PMS7003;55690;51.566;19.198;2023-07-13T06:51:54;14;11;10
68713;PMS7003;55690;51.566;19.198;2023-07-13T06:56:00;14;7;6
68713;PMS7003;55690;51.566;19.198;2023-07-13T07:00:07;16;13;12
68713;PMS7003;55690;51.566;19.198;2023-07-13T07:04:13;12;10;9
68713;PMS7003;55690;51.566;19.198;2023-07-13T07:08:19;10;10;9
68713;PMS7003;55690;51.566;19.198;2023-07-13T07:12:25;7;7;5
68713;PMS7003;55690;51.566;19.198;2023-07-13T07:16:31;10;10;8
68713;PMS7003;55690;51.566;19.198;2023-07-13T07:20:37;8;8;7
68713;PMS7003;55690;51.566;19.198;2023-07-13T07:24:44;14;14;12
68713;PMS7003;55690;51.566;19.198;2023-07-13T07:28:50;18;17;13
68713;PMS7003;55690;51.566;19.198;2023-07-13T07:32:56;13;11;10
68713;PMS7003;55690;51.566;19.198;2023-07-13T07:37:02;18;17;12
68713;PMS7003;55690;51.566;19.198;2023-07-13T07:41:08;7;7;6
68713;PMS7003;55690;51.566;19.198;2023-07-13T07:45:14;9;6;5
68713;PMS7003;55690;51.566;19.198;2023-07-13T07:49:21;8;8;7
68713;PMS7003;55690;51.566;19.198;2023-07-13T07:53:27;18;6;5
68713;PMS7003;55690;51.566;19.198;2023-07-13T07:57:33;11;7;6
68713;PMS7003;55690;51.566;19.198;2023-07-13T08:01:39;14;7;7
68713;PMS7003;55690;51.566;19.198;2023-07-13T08:05:45;5;5;4
68713;PMS7003;55690;51.566;19.198;2023-07-13T08:09:52;4;4;3
68713;PMS7003;55690;51.566;19.198;2023-07-13T08:13:57;6;4;3
68713;PMS7003;55690;51.566;19.198;2023-07-13T08:18:04;4;4;4
68713;PMS7003;55690;51.566;19.198;2023-07-13T08:22:10;2;2;2
68713;PMS7003;55690;51.566;19.198;2023-07-13T08:26:16;11;4;4
68713;PMS7003;55690;51.566;19.198;2023-07-13T08:30:22;3;3;3
68713;PMS7003;55690;51.566;19.198;2023-07-13T08:34:28;3;2;2
68713;PMS7003;55690;51.566;19.198;2023-07-13T08:38:34;3;3;3
68713;PMS7003;55690;51.566;19.198;2023-07-13T08:46:50;2;2;2
68713;PMS7003;55690;51.566;19.198;2023-07-13T08:50:58;8;4;3
68713;PMS7003;55690;51.566;19.198;2023-07-13T08:55:25;3;3;2
68713;PMS7003;55690;51.566;19.198;2023-07-13T08:59:18;4;3;3
68713;PMS7003;55690;51.566;19.198;2023-07-13T09:03:29;3;3;2
68713;PMS7003;55690;51.566;19.198;2023-07-13T09:11:56;4;4;4
68713;PMS7003;55690;51.566;19.198;2023-07-13T09:16:04;2;2;2
68713;PMS7003;55690;51.566;19.198;2023-07-13T09:20:10;5;4;3
68713;PMS7003;55690;51.566;19.198;2023-07-13T09:28:43;7;7;5
68713;PMS7003;55690;51.566;19.198;2023-07-13T09:32:50;2;2;2
68713;PMS7003;55690;51.566;19.198;2023-07-13T09:36:53;5;3;3
68713;PMS7003;55690;51.566;19.198;2023-07-13T09:41:04;10;4;2
68713;PMS7003;55690;51.566;19.198;2023-07-13T09:45:11;3;3;2
68713;PMS7003;55690;51.566;19.198;2023-07-13T09:49:25;4;2;2
68713;PMS7003;55690;51.566;19.198;2023-07-13T09:53:29;4;4;3
68713;PMS7003;55690;51.566;19.198;2023-07-13T09:57:31;4;4;3
68713;PMS7003;55690;51.566;19.198;2023-07-13T10:01:34;3;2;2
68713;PMS7003;55690;51.566;19.198;2023-07-13T10:05:39;3;2;2
68713;PMS7003;55690;51.566;19.198;2023-07-13T10:09:42;6;3;2
68713;PMS7003;55690;51.566;19.198;2023-07-13T10:17:59;3;1;1
68713;PMS7003;55690;51.566;19.198;2023-07-13T10:22:04;3;3;3
68713;PMS7003;55690;51.566;19.198;2023-07-13T10:30:29;4;3;3
68713;PMS7003;55690;51.566;19.198;2023-07-13T10:34:35;6;3;3
68713;PMS7003;55690;51.566;19.198;2023-07-13T10:38:37;12;5;4
68713;PMS7003;55690;51.566;19.198;2023-07-13T10:42:40;3;3;2
68713;PMS7003;55690;51.566;19.198;2023-07-13T10:46:45;2;0;0
68713;PMS7003;55690;51.566;19.198;2023-07-13T10:50:48;3;3;2
68713;PMS7003;55690;51.566;19.198;2023-07-13T10:54:53;4;2;2
68713;PMS7003;55690;51.566;19.198;2023-07-13T10:59:17;3;3;3
68713;PMS7003;55690;51.566;19.198;2023-07-13T11:03:17;3;3;2
68713;PMS7003;55690;51.566;19.198;2023-07-13T11:07:26;4;4;4
68713;PMS7003;55690;51.566;19.198;2023-07-13T11:11:33;4;4;3
68713;PMS7003;55690;51.566;19.198;2023-07-13T11:15:47;3;3;3
68713;PMS7003;55690;51.566;19.198;2023-07-13T11:19:50;6;6;5
68713;PMS7003;55690;51.566;19.198;2023-07-13T11:23:55;2;2;2
68713;PMS7003;55690;51.566;19.198;2023-07-13T11:28:16;6;4;3
68713;PMS7003;55690;51.566;19.198;2023-07-13T11:32:23;6;3;3
68713;PMS7003;55690;51.566;19.198;2023-07-13T11:36:30;3;3;2
68713;PMS7003;55690;51.566;19.198;2023-07-13T11:40:37;6;4;3
68713;PMS7003;55690;51.566;19.198;2023-07-13T11:48:49;6;6;3
68713;PMS7003;55690;51.566;19.198;2023-07-13T11:52:52;4;4;3
68713;PMS7003;55690;51.566;19.198;2023-07-13T12:01:16;5;4;3
68713;PMS7003;55690;51.566;19.198;2023-07-13T12:05:21;4;4;3
68713;PMS7003;55690;51.566;19.198;2023-07-13T12:09:26;4;4;3
68713;PMS7003;55690;51.566;19.198;2023-07-13T12:13:29;8;6;6
68713;PMS7003;55690;51.566;19.198;2023-07-13T12:17:30;11;4;4
68713;PMS7003;55690;51.566;19.198;2023-07-13T12:21:39;5;5;4
68713;PMS7003;55690;51.566;19.198;2023-07-13T12:25:39;9;6;6
68713;PMS7003;55690;51.566;19.198;2023-07-13T12:29:48;7;6;5
68713;PMS7003;55690;51.566;19.198;2023-07-13T12:34:01;7;7;7
68713;PMS7003;55690;51.566;19.198;2023-07-13T12:38:01;14;6;5
68713;PMS7003;55690;51.566;19.198;2023-07-13T12:46:20;8;7;5
68713;PMS7003;55690;51.566;19.198;2023-07-13T12:50:28;10;7;7
68713;PMS7003;55690;51.566;19.198;2023-07-13T12:54:34;5;4;4
68713;PMS7003;55690;51.566;19.198;2023-07-13T12:58:41;6;6;5
68713;PMS7003;55690;51.566;19.198;2023-07-13T13:02:48;4;4;3
68713;PMS7003;55690;51.566;19.198;2023-07-13T13:07:00;4;4;3
68713;PMS7003;55690;51.566;19.198;2023-07-13T13:11:03;4;4;3
68713;PMS7003;55690;51.566;19.198;2023-07-13T13:15:06;13;6;5
68713;PMS7003;55690;51.566;19.198;2023-07-13T13:23:25;7;3;3
68713;PMS7003;55690;51.566;19.198;2023-07-13T13:27:26;5;5;4
68713;PMS7003;55690;51.566;19.198;2023-07-13T13:31:28;9;6;4
68713;PMS7003;55690;51.566;19.198;2023-07-13T13:35:29;5;5;4
68713;PMS7003;55690;51.566;19.198;2023-07-13T13:43:40;3;3;2
68713;PMS7003;55690;51.566;19.198;2023-07-13T13:47:43;2;2;2
68713;PMS7003;55690;51.566;19.198;2023-07-13T13:51:45;8;4;4
68713;PMS7003;55690;51.566;19.198;2023-07-13T13:55:47;12;4;3
68713;PMS7003;55690;51.566;19.198;2023-07-13T13:59:48;3;3;3
68713;PMS7003;55690;51.566;19.198;2023-07-13T14:03:50;4;4;4
68713;PMS7003;55690;51.566;19.198;2023-07-13T14:07:52;5;2;2
68713;PMS7003;55690;51.566;19.198;2023-07-13T14:11:55;5;5;4
68713;PMS7003;55690;51.566;19.198;2023-07-13T14:15:58;4;4;4
68713;PMS7003;55690;51.566;19.198;2023-07-13T14:20:00;2;2;2
68713;PMS7003;55690;51.566;19.198;2023-07-13T14:24:01;3;3;2
68713;PMS7003;55690;51.566;19.198;2023-07-13T14:28:04;1;1;1
68713;PMS7003;55690;51.566;19.198;2023-07-13T14:32:14;5;3;3
68713;PMS7003;55690;51.566;19.198;2023-07-13T14:40:29;3;3;1
68713;PMS7003;55690;51.566;19.198;2023-07-13T14:44:32;8;4;3
68713;PMS7003;55690;51.566;19.198;2023-07-13T14:48:34;3;3;2
68713;PMS7003;55690;51.566;19.198;2023-07-13T14:52:35;5;5;5
68713;PMS7003;55690;51.566;19.198;2023-07-13T14:56:37;5;5;4
68713;PMS7003;55690;51.566;19.198;2023-07-13T15:00:38;2;2;2
68713;PMS7003;55690;51.566;19.198;2023-07-13T15:04:41;6;5;5
68713;PMS7003;55690;51.566;19.198;2023-07-13T15:08:42;6;4;4
68713;PMS7003;55690;51.566;19.198;2023-07-13T15:12:44;8;8;8
68713;PMS7003;55690;51.566;19.198;2023-07-13T15:16:46;6;6;6
68713;PMS7003;55690;51.566;19.198;2023-07-13T15:20:51;5;5;4
68713;PMS7003;55690;51.566;19.198;2023-07-13T15:24:55;4;4;4
68713;PMS7003;55690;51.566;19.198;2023-07-13T15:28:57;6;6;5
68713;PMS7003;55690;51.566;19.198;2023-07-13T15:33:00;6;6;5
68713;PMS7003;55690;51.566;19.198;2023-07-13T15:37:15;5;5;3
68713;PMS7003;55690;51.566;19.198;2023-07-13T15:41:21;6;5;4
68713;PMS7003;55690;51.566;19.198;2023-07-13T15:45:25;6;6;5
68713;PMS7003;55690;51.566;19.198;2023-07-13T15:49:26;6;6;5
68713;PMS7003;55690;51.566;19.198;2023-07-13T15:53:29;4;4;4
68713;PMS7003;55690;51.566;19.198;2023-07-13T15:57:34;4;4;4
68713;PMS7003;55690;51.566;19.198;2023-07-13T16:01:41;4;4;4
68713;PMS7003;55690;51.566;19.198;2023-07-13T16:05:54;12;5;5
68713;PMS7003;55690;51.566;19.198;2023-07-13T16:09:55;9;6;5
68713;PMS7003;55690;51.566;19.198;2023-07-13T16:14:00;4;4;4
68713;PMS7003;55690;51.566;19.198;2023-07-13T16:18:05;4;4;4
68713;PMS7003;55690;51.566;19.198;2023-07-13T16:22:15;7;5;4
68713;PMS7003;55690;51.566;19.198;2023-07-13T16:30:27;7;7;7
68713;PMS7003;55690;51.566;19.198;2023-07-13T16:34:33;3;3;2
68713;PMS7003;55690;51.566;19.198;2023-07-13T16:38:38;4;4;4
68713;PMS7003;55690;51.566;19.198;2023-07-13T16:42:45;11;5;5
68713;PMS7003;55690;51.566;19.198;2023-07-13T16:46:51;7;7;6
68713;PMS7003;55690;51.566;19.198;2023-07-13T16:51:00;4;4;4
68713;PMS7003;55690;51.566;19.198;2023-07-13T16:55:09;5;5;5
68713;PMS7003;55690;51.566;19.198;2023-07-13T16:59:16;5;5;5
68713;PMS7003;55690;51.566;19.198;2023-07-13T17:03:19;5;5;4
68713;PMS7003;55690;51.566;19.198;2023-07-13T17:07:22;5;5;4
68713;PMS7003;55690;51.566;19.198;2023-07-13T17:11:28;6;6;5
68713;PMS7003;55690;51.566;19.198;2023-07-13T17:15:34;5;5;5
68713;PMS7003;55690;51.566;19.198;2023-07-13T17:19:40;5;5;4
68713;PMS7003;55690;51.566;19.198;2023-07-13T17:23:46;7;4;3
68713;PMS7003;55690;51.566;19.198;2023-07-13T17:27:52;8;7;5
68713;PMS7003;55690;51.566;19.198;2023-07-13T17:31:58;5;5;4
68713;PMS7003;55690;51.566;19.198;2023-07-13T17:36:06;4;4;4
68713;PMS7003;55690;51.566;19.198;2023-07-13T17:40:13;9;9;7
68713;PMS7003;55690;51.566;19.198;2023-07-13T17:44:19;5;5;5
68713;PMS7003;55690;51.566;19.198;2023-07-13T17:48:23;15;7;7
68713;PMS7003;55690;51.566;19.198;2023-07-13T17:52:29;10;9;7
68713;PMS7003;55690;51.566;19.198;2023-07-13T17:56:35;19;5;5
68713;PMS7003;55690;51.566;19.198;2023-07-13T18:00:42;3;3;3
68713;PMS7003;55690;51.566;19.198;2023-07-13T18:04:49;4;4;4
68713;PMS7003;55690;51.566;19.198;2023-07-13T18:08:55;7;7;6
68713;PMS7003;55690;51.566;19.198;2023-07-13T18:13:00;3;3;3
68713;PMS7003;55690;51.566;19.198;2023-07-13T18:17:07;3;3;3
68713;PMS7003;55690;51.566;19.198;2023-07-13T18:21:14;2;2;2
68713;PMS7003;55690;51.566;19.198;2023-07-13T18:25:20;4;4;4
68713;PMS7003;55690;51.566;19.198;2023-07-13T18:29:25;4;4;4
68713;PMS7003;55690;51.566;19.198;2023-07-13T18:33:31;5;5;5
68713;PMS7003;55690;51.566;19.198;2023-07-13T18:37:37;3;3;3
68713;PMS7003;55690;51.566;19.198;2023-07-13T18:41:43;8;6;5
68713;PMS7003;55690;51.566;19.198;2023-07-13T18:49:59;5;5;2
68713;PMS7003;55690;51.566;19.198;2023-07-13T18:54:02;12;9;7
68713;PMS7003;55690;51.566;19.198;2023-07-13T18:58:08;32;15;10
68713;PMS7003;55690;51.566;19.198;2023-07-13T19:02:15;21;17;10
68713;PMS7003;55690;51.566;19.198;2023-07-13T19:06:20;18;14;7
68713;PMS7003;55690;51.566;19.198;2023-07-13T19:10:27;12;9;7
68713;PMS7003;55690;51.566;19.198;2023-07-13T19:14:33;9;9;7
68713;PMS7003;55690;51.566;19.198;2023-07-13T19:18:39;9;9;7
68713;PMS7003;55690;51.566;19.198;2023-07-13T19:22:45;15;8;6
68713;PMS7003;55690;51.566;19.198;2023-07-13T19:26:51;9;4;3
68713;PMS7003;55690;51.566;19.198;2023-07-13T19:30:57;8;8;8
68713;PMS7003;55690;51.566;19.198;2023-07-13T19:35:04;12;9;7
68713;PMS7003;55690;51.566;19.198;2023-07-13T19:43:22;6;6;5
68713;PMS7003;55690;51.566;19.198;2023-07-13T19:47:24;5;5;4
68713;PMS7003;55690;51.566;19.198;2023-07-13T19:51:28;6;6;6
68713;PMS7003;55690;51.566;19.198;2023-07-13T19:55:34;6;6;5
68713;PMS7003;55690;51.566;19.198;2023-07-13T19:59:40;7;6;5
68713;PMS7003;55690;51.566;19.198;2023-07-13T20:03:46;3;3;3
68713;PMS7003;55690;51.566;19.198;2023-07-13T20:07:54;5;5;5
68713;PMS7003;55690;51.566;19.198;2023-07-13T20:11:59;7;4;4
68713;PMS7003;55690;51.566;19.198;2023-07-13T20:16:07;4;4;3
68713;PMS7003;55690;51.566;19.198;2023-07-13T20:24:28;4;3;3
68713;PMS7003;55690;51.566;19.198;2023-07-13T20:28:30;3;3;3
68713;PMS7003;55690;51.566;19.198;2023-07-13T20:32:32;4;4;4
68713;PMS7003;55690;51.566;19.198;2023-07-13T20:36:36;7;7;7
68713;PMS7003;55690;51.566;19.198;2023-07-13T20:40:42;13;5;5
68713;PMS7003;55690;51.566;19.198;2023-07-13T20:44:48;5;5;4
68713;PMS7003;55690;51.566;19.198;2023-07-13T20:48:54;4;4;3
68713;PMS7003;55690;51.566;19.198;2023-07-13T20:53:01;5;3;3
68713;PMS7003;55690;51.566;19.198;2023-07-13T20:57:07;6;3;2
68713;PMS7003;55690;51.566;19.198;2023-07-13T21:05:30;4;4;4
68713;PMS7003;55690;51.566;19.198;2023-07-13T21:09:41;4;4;4
68713;PMS7003;55690;51.566;19.198;2023-07-13T21:13:42;12;9;7
68713;PMS7003;55690;51.566;19.198;2023-07-13T21:17:44;9;4;4
68713;PMS7003;55690;51.566;19.198;2023-07-13T21:21:48;6;6;2
68713;PMS7003;55690;51.566;19.198;2023-07-13T21:25:50;6;4;3
68713;PMS7003;55690;51.566;19.198;2023-07-13T21:29:56;3;3;3
68713;PMS7003;55690;51.566;19.198;2023-07-13T21:34:09;7;6;6
68713;PMS7003;55690;51.566;19.198;2023-07-13T21:38:17;4;4;3
68713;PMS7003;55690;51.566;19.198;2023-07-13T21:42:24;4;4;3
68713;PMS7003;55690;51.566;19.198;2023-07-13T21:46:26;7;7;6
68713;PMS7003;55690;51.566;19.198;2023-07-13T21:54:40;3;3;3
68713;PMS7003;55690;51.566;19.198;2023-07-13T21:58:42;5;5;4
68713;PMS7003;55690;51.566;19.198;2023-07-13T22:02:45;8;4;4
68713;PMS7003;55690;51.566;19.198;2023-07-13T22:06:51;4;2;2
68713;PMS7003;55690;51.566;19.198;2023-07-13T22:10:58;4;4;4
68713;PMS7003;55690;51.566;19.198;2023-07-13T22:15:05;4;4;3
68713;PMS7003;55690;51.566;19.198;2023-07-13T22:19:14;4;4;3
68713;PMS7003;55690;51.566;19.198;2023-07-13T22:23:19;9;7;7
68713;PMS7003;55690;51.566;19.198;2023-07-13T22:27:22;6;6;6
68713;PMS7003;55690;51.566;19.198;2023-07-13T22:31:29;6;4;4
68713;PMS7003;55690;51.566;19.198;2023-07-13T22:35:35;7;7;5
68713;PMS7003;55690;51.566;19.198;2023-07-13T22:39:42;6;6;6
68713;PMS7003;55690;51.566;19.198;2023-07-13T22:43:47;4;4;4
68713;PMS7003;55690;51.566;19.198;2023-07-13T22:47:53;6;6;6
68713;PMS7003;55690;51.566;19.198;2023-07-13T22:52:00;6;6;4
68713;PMS7003;55690;51.566;19.198;2023-07-13T22:56:05;8;4;2
68713;PMS7003;55690;51.566;19.198;2023-07-13T23:00:15;8;5;5
68713;PMS7003;55690;51.566;19.198;2023-07-13T23:08:30;12;7;6
68713;PMS7003;55690;51.566;19.198;2023-07-13T23:12:31;6;6;5
68713;PMS7003;55690;51.566;19.198;2023-07-13T23:16:36;8;6;5
68713;PMS7003;55690;51.566;19.198;2023-07-13T23:20:42;7;6;5
68713;PMS7003;55690;51.566;19.198;2023-07-13T23:24:49;6;5;5
68713;PMS7003;55690;51.566;19.198;2023-07-13T23:28:55;9;9;8
68713;PMS7003;55690;51.566;19.198;2023-07-13T23:33:16;6;6;6
68713;PMS7003;55690;51.566;19.198;2023-07-13T23:37:15;8;8;7
68713;PMS7003;55690;51.566;19.198;2023-07-13T23:41:20;11;11;9
68713;PMS7003;55690;51.566;19.198;2023-07-13T23:45:24;8;7;6
68713;PMS7003;55690;51.566;19.198;2023-07-13T23:49:29;9;5;5
68713;PMS7003;55690;51.566;19.198;2023-07-13T23:53:33;5;5;5
68713;PMS7003;55690;51.566;19.198;2023-07-13T23:57:38;8;8;8
